首页
METAR-TAF:

METAR-TAF

机场 :

布拉提斯拉瓦機場

布拉迪斯拉发, 斯洛伐克

纬度: 48-12N, 经度: 017-12E, 海拔: 133米

当前天气观测

该预报发布于39分钟前的04:00 UTC
风速8节,风向东北
温度 6°C
湿度 93%
气压 996 hPa
能见度10公里或以上
多云层高于4800英尺
多云层高于8800英尺

METAR: LZIB 230400Z 04008KT 9999 BKN048 BKN088 06/05 Q0996 R13/CLRD//

时间: 05:39 (04:39 UTC)

预报

该预报发布于5小时和39分钟前的23:00 UTC
预报有效从23日的 00点(UTC)到 24日的 00点(UTC)
风速10节,风向南转西南
能见度10公里或以上
少量云层高于3500英尺
多云层高于6000英尺
短暂存在
从 23日的 02点(UTC)到 23日的 09点(UTC)
能見度: 5000
散云层高于2000英尺
多云层高于4000英尺
小雨, 轻雾
成为
从 23日的 08点(UTC)到 23日的 10点(UTC)
风速10节,风向西转西北
短暂存在
从 23日的 10点(UTC)到 23日的 15点(UTC)
风速15节,风向西转西北,有时为25节阵风
能见度10公里或以上
多云层高于3000英尺
阵雨
成为
从 23日的 18点(UTC)到 23日的 20点(UTC)
风速2节,风向多变
能見度: 6000
散云层高于1000英尺
阴天层高于2300英尺
小雨, 雪

TAF: LZIB 222300Z 2300/2400 20010KT 9999 FEW035 BKN060 TEMPO 2302/2309 5000 -RA BR SCT020 BKN040 BECMG 2308/2310 29010KT TEMPO 2310/2315 30015G25KT 9999 SHRA BKN030 BECMG 2318/2320 VRB02KT 6000 -RASN SCT010 OVC023

超过4000个机场的气象观测和天气预报(METAR&TAF报告)。

可查询的气象台以黄色和红色小点在地图上表示。

将鼠标移到小点上方,可查看气象台名称。

然后点击查看天气观测和预报。

如需切换地图:点击带黑十字的绿色按钮放大地图;点击带横线的绿色按钮缩小地图;或者点击绿色箭头查看邻近地区的地图。


METAR-TAF: